sensor_id;sensor_type;location;lat;lon;timestamp;pressure;altitude;pressure_sealevel;temperature;humidity
22000;BME280;11164;48.818;2.322;2023-07-28T00:00:53;99917.03;;;20.62;50.39
22000;BME280;11164;48.818;2.322;2023-07-28T00:03:18;99917.28;;;20.60;50.56
22000;BME280;11164;48.818;2.322;2023-07-28T00:05:44;99916.59;;;20.84;49.78
22000;BME280;11164;48.818;2.322;2023-07-28T00:08:09;99928.63;;;20.88;49.87
22000;BME280;11164;48.818;2.322;2023-07-28T00:10:40;99928.66;;;20.83;50.13
22000;BME280;11164;48.818;2.322;2023-07-28T00:13:06;99925.38;;;20.86;49.82
22000;BME280;11164;48.818;2.322;2023-07-28T00:15:31;99918.00;;;20.81;50.16
22000;BME280;11164;48.818;2.322;2023-07-28T00:17:56;99902.41;;;20.72;50.13
22000;BME280;11164;48.818;2.322;2023-07-28T00:20:22;99899.09;;;20.80;49.83
22000;BME280;11164;48.818;2.322;2023-07-28T00:22:48;99914.00;;;20.64;50.58
22000;BME280;11164;48.818;2.322;2023-07-28T00:25:13;99908.72;;;20.77;50.02
22000;BME280;11164;48.818;2.322;2023-07-28T00:27:38;99913.75;;;20.99;49.61
22000;BME280;11164;48.818;2.322;2023-07-28T00:30:04;99899.63;;;20.82;50.07
22000;BME280;11164;48.818;2.322;2023-07-28T00:32:29;99905.72;;;20.74;50.18
22000;BME280;11164;48.818;2.322;2023-07-28T00:34:55;99905.91;;;20.88;49.65
22000;BME280;11164;48.818;2.322;2023-07-28T00:37:20;99911.03;;;20.94;49.75
22000;BME280;11164;48.818;2.322;2023-07-28T00:39:45;99908.09;;;20.86;50.06
22000;BME280;11164;48.818;2.322;2023-07-28T00:42:11;99907.34;;;20.75;50.15
22000;BME280;11164;48.818;2.322;2023-07-28T00:44:36;99906.34;;;20.60;50.58
22000;BME280;11164;48.818;2.322;2023-07-28T00:47:01;99908.44;;;20.79;50.09
22000;BME280;11164;48.818;2.322;2023-07-28T00:49:27;99907.47;;;20.99;49.48
22000;BME280;11164;48.818;2.322;2023-07-28T00:51:53;99904.44;;;21.00;49.75
22000;BME280;11164;48.818;2.322;2023-07-28T00:54:19;99902.94;;;21.13;49.11
22000;BME280;11164;48.818;2.322;2023-07-28T00:56:46;99910.31;;;21.18;49.21
22000;BME280;11164;48.818;2.322;2023-07-28T00:59:11;99908.91;;;21.21;48.97
22000;BME280;11164;48.818;2.322;2023-07-28T01:01:37;99912.88;;;21.09;49.39
22000;BME280;11164;48.818;2.322;2023-07-28T01:04:02;99904.19;;;20.97;49.56
22000;BME280;11164;48.818;2.322;2023-07-28T01:09:05;99909.63;;;21.02;49.53
22000;BME280;11164;48.818;2.322;2023-07-28T01:11:33;99898.31;;;21.14;49.24
22000;BME280;11164;48.818;2.322;2023-07-28T01:13:59;99908.88;;;21.31;48.85
22000;BME280;11164;48.818;2.322;2023-07-28T01:16:24;99905.59;;;21.24;49.10
22000;BME280;11164;48.818;2.322;2023-07-28T01:18:49;99910.38;;;21.13;49.56
22000;BME280;11164;48.818;2.322;2023-07-28T01:21:35;99916.66;;;20.79;51.58
22000;BME280;11164;48.818;2.322;2023-07-28T01:26:50;99910.22;;;20.94;49.72
22000;BME280;11164;48.818;2.322;2023-07-28T01:29:16;99910.56;;;20.82;49.93
22000;BME280;11164;48.818;2.322;2023-07-28T01:31:46;99913.94;;;20.74;50.35
22000;BME280;11164;48.818;2.322;2023-07-28T01:34:11;99907.41;;;20.65;50.45
22000;BME280;11164;48.818;2.322;2023-07-28T01:36:37;99910.16;;;20.59;50.78
22000;BME280;11164;48.818;2.322;2023-07-28T01:39:02;99907.06;;;20.76;50.19
22000;BME280;11164;48.818;2.322;2023-07-28T01:41:27;99898.94;;;20.61;50.56
22000;BME280;11164;48.818;2.322;2023-07-28T01:43:53;99901.44;;;20.57;50.74
22000;BME280;11164;48.818;2.322;2023-07-28T01:46:20;99899.22;;;20.59;50.67
22000;BME280;11164;48.818;2.322;2023-07-28T01:48:46;99901.63;;;20.71;50.42
22000;BME280;11164;48.818;2.322;2023-07-28T01:51:11;99893.97;;;20.68;50.40
22000;BME280;11164;48.818;2.322;2023-07-28T01:53:36;99887.63;;;20.73;50.25
22000;BME280;11164;48.818;2.322;2023-07-28T01:56:02;99884.03;;;20.83;50.09
22000;BME280;11164;48.818;2.322;2023-07-28T01:58:27;99887.03;;;20.81;50.13
22000;BME280;11164;48.818;2.322;2023-07-28T02:00:52;99883.66;;;20.89;50.04
22000;BME280;11164;48.818;2.322;2023-07-28T02:03:18;99881.34;;;20.72;50.37
22000;BME280;11164;48.818;2.322;2023-07-28T02:05:43;99902.34;;;20.82;50.16
22000;BME280;11164;48.818;2.322;2023-07-28T02:08:09;99898.53;;;20.83;50.21
22000;BME280;11164;48.818;2.322;2023-07-28T02:10:35;99889.72;;;20.91;49.90
22000;BME280;11164;48.818;2.322;2023-07-28T02:13:00;99900.59;;;21.02;49.65
22000;BME280;11164;48.818;2.322;2023-07-28T02:15:25;99901.16;;;20.98;49.97
22000;BME280;11164;48.818;2.322;2023-07-28T02:17:51;99896.78;;;20.97;49.92
22000;BME280;11164;48.818;2.322;2023-07-28T02:20:16;99895.88;;;21.07;49.57
22000;BME280;11164;48.818;2.322;2023-07-28T02:22:42;99885.31;;;20.90;50.27
22000;BME280;11164;48.818;2.322;2023-07-28T02:25:09;99887.06;;;20.76;50.70
22000;BME280;11164;48.818;2.322;2023-07-28T02:27:34;99867.03;;;20.80;50.07
22000;BME280;11164;48.818;2.322;2023-07-28T02:29:59;99886.56;;;20.69;50.57
22000;BME280;11164;48.818;2.322;2023-07-28T02:32:26;99886.03;;;20.67;50.61
22000;BME280;11164;48.818;2.322;2023-07-28T02:34:51;99887.91;;;20.71;50.79
22000;BME280;11164;48.818;2.322;2023-07-28T02:37:18;99886.81;;;20.72;50.39
22000;BME280;11164;48.818;2.322;2023-07-28T02:39:43;99879.38;;;20.78;50.42
22000;BME280;11164;48.818;2.322;2023-07-28T02:42:09;99884.47;;;20.95;50.07
22000;BME280;11164;48.818;2.322;2023-07-28T02:44:34;99884.47;;;20.95;49.98
22000;BME280;11164;48.818;2.322;2023-07-28T02:46:59;99881.34;;;21.07;49.72
22000;BME280;11164;48.818;2.322;2023-07-28T02:49:25;99882.38;;;21.16;49.32
22000;BME280;11164;48.818;2.322;2023-07-28T02:51:50;99879.94;;;21.14;49.53
22000;BME280;11164;48.818;2.322;2023-07-28T02:54:15;99887.53;;;21.28;49.43
22000;BME280;11164;48.818;2.322;2023-07-28T02:56:41;99869.50;;;21.16;49.16
22000;BME280;11164;48.818;2.322;2023-07-28T02:59:06;99879.06;;;21.19;49.68
22000;BME280;11164;48.818;2.322;2023-07-28T03:01:31;99886.03;;;21.06;49.99
22000;BME280;11164;48.818;2.322;2023-07-28T03:04:01;99889.25;;;21.13;49.83
22000;BME280;11164;48.818;2.322;2023-07-28T03:06:26;99899.88;;;21.20;49.77
22000;BME280;11164;48.818;2.322;2023-07-28T03:08:51;99893.50;;;20.95;50.36
22000;BME280;11164;48.818;2.322;2023-07-28T03:11:17;99884.78;;;20.88;50.50
22000;BME280;11164;48.818;2.322;2023-07-28T03:13:42;99901.09;;;21.09;49.99
22000;BME280;11164;48.818;2.322;2023-07-28T03:16:07;99901.22;;;20.88;50.48
22000;BME280;11164;48.818;2.322;2023-07-28T03:18:33;99890.25;;;20.93;50.25
22000;BME280;11164;48.818;2.322;2023-07-28T03:20:58;99894.06;;;20.92;50.39
22000;BME280;11164;48.818;2.322;2023-07-28T03:23:23;99896.81;;;20.92;50.61
22000;BME280;11164;48.818;2.322;2023-07-28T03:25:48;99904.22;;;20.92;50.58
22000;BME280;11164;48.818;2.322;2023-07-28T03:28:14;99902.25;;;20.97;50.09
22000;BME280;11164;48.818;2.322;2023-07-28T03:30:39;99897.84;;;21.02;50.37
22000;BME280;11164;48.818;2.322;2023-07-28T03:33:04;99901.81;;;21.19;49.82
22000;BME280;11164;48.818;2.322;2023-07-28T03:35:30;99901.78;;;21.25;49.54
22000;BME280;11164;48.818;2.322;2023-07-28T03:37:55;99901.25;;;21.23;49.99
22000;BME280;11164;48.818;2.322;2023-07-28T03:40:20;99898.75;;;21.31;49.48
22000;BME280;11164;48.818;2.322;2023-07-28T03:42:46;99892.09;;;21.37;49.67
22000;BME280;11164;48.818;2.322;2023-07-28T03:45:11;99896.09;;;21.16;49.99
22000;BME280;11164;48.818;2.322;2023-07-28T03:47:37;99890.09;;;21.14;49.95
22000;BME280;11164;48.818;2.322;2023-07-28T03:50:05;99887.06;;;21.15;49.72
22000;BME280;11164;48.818;2.322;2023-07-28T03:52:30;99881.34;;;21.07;49.80
22000;BME280;11164;48.818;2.322;2023-07-28T03:54:55;99884.19;;;20.96;50.18
22000;BME280;11164;48.818;2.322;2023-07-28T03:57:21;99882.81;;;20.94;50.06
22000;BME280;11164;48.818;2.322;2023-07-28T03:59:46;99881.34;;;21.07;49.49
22000;BME280;11164;48.818;2.322;2023-07-28T04:02:11;99873.03;;;20.88;49.78
22000;BME280;11164;48.818;2.322;2023-07-28T04:04:37;99877.09;;;20.90;49.31
22000;BME280;11164;48.818;2.322;2023-07-28T04:07:02;99878.88;;;20.71;49.68
22000;BME280;11164;48.818;2.322;2023-07-28T04:09:28;99876.53;;;20.49;50.04
22000;BME280;11164;48.818;2.322;2023-07-28T04:11:53;99873.81;;;20.43;50.28
22000;BME280;11164;48.818;2.322;2023-07-28T04:14:18;99870.28;;;20.38;50.18
22000;BME280;11164;48.818;2.322;2023-07-28T04:16:44;99869.13;;;20.49;50.29
22000;BME280;11164;48.818;2.322;2023-07-28T04:19:09;99874.88;;;20.48;50.08
22000;BME280;11164;48.818;2.322;2023-07-28T04:21:34;99876.78;;;20.52;49.98
22000;BME280;11164;48.818;2.322;2023-07-28T04:24:00;99869.47;;;20.37;50.36
22000;BME280;11164;48.818;2.322;2023-07-28T04:26:25;99866.44;;;20.39;50.59
22000;BME280;11164;48.818;2.322;2023-07-28T04:28:51;99862.50;;;20.66;50.02
22000;BME280;11164;48.818;2.322;2023-07-28T04:31:17;99869.06;;;20.65;50.21
22000;BME280;11164;48.818;2.322;2023-07-28T04:33:43;99878.63;;;20.67;49.94
22000;BME280;11164;48.818;2.322;2023-07-28T04:36:09;99884.97;;;20.62;49.84
22000;BME280;11164;48.818;2.322;2023-07-28T04:38:34;99875.72;;;20.48;50.51
22000;BME280;11164;48.818;2.322;2023-07-28T04:41:00;99882.31;;;20.42;50.60
22000;BME280;11164;48.818;2.322;2023-07-28T04:43:25;99884.75;;;20.54;50.54
22000;BME280;11164;48.818;2.322;2023-07-28T04:45:51;99882.78;;;20.59;50.28
22000;BME280;11164;48.818;2.322;2023-07-28T04:48:16;99882.72;;;20.70;50.27
22000;BME280;11164;48.818;2.322;2023-07-28T04:50:41;99877.53;;;20.68;50.34
22000;BME280;11164;48.818;2.322;2023-07-28T04:53:07;99884.66;;;20.69;50.34
22000;BME280;11164;48.818;2.322;2023-07-28T04:55:32;99875.88;;;20.72;50.46
22000;BME280;11164;48.818;2.322;2023-07-28T04:57:57;99886.28;;;20.70;50.53
22000;BME280;11164;48.818;2.322;2023-07-28T05:00:23;99878.44;;;20.58;51.04
22000;BME280;11164;48.818;2.322;2023-07-28T05:02:48;99871.34;;;20.42;51.29
22000;BME280;11164;48.818;2.322;2023-07-28T05:05:14;99880.63;;;20.51;51.33
22000;BME280;11164;48.818;2.322;2023-07-28T05:07:39;99881.19;;;20.48;51.53
22000;BME280;11164;48.818;2.322;2023-07-28T05:10:05;99881.47;;;20.47;51.54
22000;BME280;11164;48.818;2.322;2023-07-28T05:12:30;99883.94;;;20.48;51.83
22000;BME280;11164;48.818;2.322;2023-07-28T05:14:56;99884.22;;;20.47;52.10
22000;BME280;11164;48.818;2.322;2023-07-28T05:17:21;99883.69;;;20.44;51.89
22000;BME280;11164;48.818;2.322;2023-07-28T05:19:46;99881.16;;;20.53;51.84
22000;BME280;11164;48.818;2.322;2023-07-28T05:22:11;99875.44;;;20.55;52.05
22000;BME280;11164;48.818;2.322;2023-07-28T05:24:37;99878.63;;;20.67;51.71
22000;BME280;11164;48.818;2.322;2023-07-28T05:27:02;99885.81;;;20.58;51.92
22000;BME280;11164;48.818;2.322;2023-07-28T05:29:28;99890.19;;;20.59;51.97
22000;BME280;11164;48.818;2.322;2023-07-28T05:31:53;99886.06;;;20.56;52.12
22000;BME280;11164;48.818;2.322;2023-07-28T05:34:18;99894.31;;;20.51;52.17
22000;BME280;11164;48.818;2.322;2023-07-28T05:36:44;99896.53;;;20.44;52.46
22000;BME280;11164;48.818;2.322;2023-07-28T05:39:09;99892.44;;;20.41;52.80
22000;BME280;11164;48.818;2.322;2023-07-28T05:41:36;99894.59;;;20.50;52.53
22000;BME280;11164;48.818;2.322;2023-07-28T05:44:02;99898.63;;;20.68;52.17
22000;BME280;11164;48.818;2.322;2023-07-28T05:46:28;99889.25;;;20.79;51.90
22000;BME280;11164;48.818;2.322;2023-07-28T05:48:54;99895.38;;;20.60;52.46
22000;BME280;11164;48.818;2.322;2023-07-28T05:51:20;99895.06;;;20.67;52.48
22000;BME280;11164;48.818;2.322;2023-07-28T05:53:46;99888.44;;;20.73;52.55
22000;BME280;11164;48.818;2.322;2023-07-28T05:56:12;99891.94;;;20.84;52.09
22000;BME280;11164;48.818;2.322;2023-07-28T05:58:37;99894.66;;;20.84;52.23
22000;BME280;11164;48.818;2.322;2023-07-28T06:01:03;99895.19;;;20.91;52.05
22000;BME280;11164;48.818;2.322;2023-07-28T06:03:28;99895.44;;;20.95;51.96
22000;BME280;11164;48.818;2.322;2023-07-28T06:05:54;99889.16;;;20.89;52.17
22000;BME280;11164;48.818;2.322;2023-07-28T06:08:19;99899.00;;;20.95;52.12
22000;BME280;11164;48.818;2.322;2023-07-28T06:10:45;99900.63;;;20.96;52.28
22000;BME280;11164;48.818;2.322;2023-07-28T06:13:10;99893.09;;;21.12;51.89
22000;BME280;11164;48.818;2.322;2023-07-28T06:15:39;99895.41;;;21.00;52.38
22000;BME280;11164;48.818;2.322;2023-07-28T06:18:04;99903.91;;;20.98;52.55
22000;BME280;11164;48.818;2.322;2023-07-28T06:20:30;99912.94;;;20.99;52.80
22000;BME280;11164;48.818;2.322;2023-07-28T06:22:55;99909.06;;;21.05;52.51
22000;BME280;11164;48.818;2.322;2023-07-28T06:25:20;99905.06;;;20.87;52.83
22000;BME280;11164;48.818;2.322;2023-07-28T06:27:46;99910.75;;;20.96;52.91
22000;BME280;11164;48.818;2.322;2023-07-28T06:30:11;99902.13;;;21.13;52.49
22000;BME280;11164;48.818;2.322;2023-07-28T06:32:37;99908.34;;;21.24;52.39
22000;BME280;11164;48.818;2.322;2023-07-28T06:35:02;99915.88;;;21.08;52.66
22000;BME280;11164;48.818;2.322;2023-07-28T06:37:28;99921.16;;;20.99;52.96
22000;BME280;11164;48.818;2.322;2023-07-28T06:39:53;99918.88;;;21.11;52.56
22000;BME280;11164;48.818;2.322;2023-07-28T06:42:20;99919.16;;;21.10;52.60
22000;BME280;11164;48.818;2.322;2023-07-28T06:44:49;99913.19;;;21.03;52.99
22000;BME280;11164;48.818;2.322;2023-07-28T06:47:15;99924.31;;;21.16;52.65
22000;BME280;11164;48.818;2.322;2023-07-28T06:49:41;99928.09;;;21.21;52.51
22000;BME280;11164;48.818;2.322;2023-07-28T06:52:06;99929.59;;;21.08;52.83
22000;BME280;11164;48.818;2.322;2023-07-28T06:54:31;99924.84;;;21.18;52.39
22000;BME280;11164;48.818;2.322;2023-07-28T06:56:57;99939.63;;;21.23;52.55
22000;BME280;11164;48.818;2.322;2023-07-28T06:59:22;99937.97;;;21.22;52.67
22000;BME280;11164;48.818;2.322;2023-07-28T07:01:47;99942.81;;;21.40;52.17
22000;BME280;11164;48.818;2.322;2023-07-28T07:04:13;99939.91;;;21.21;52.85
22000;BME280;11164;48.818;2.322;2023-07-28T07:06:38;99951.69;;;21.27;52.59
22000;BME280;11164;48.818;2.322;2023-07-28T07:09:03;99941.28;;;21.18;52.82
22000;BME280;11164;48.818;2.322;2023-07-28T07:11:30;99938.41;;;21.39;52.28
22000;BME280;11164;48.818;2.322;2023-07-28T07:13:56;99943.81;;;21.49;52.06
22000;BME280;11164;48.818;2.322;2023-07-28T07:16:21;99945.75;;;21.49;51.85
22000;BME280;11164;48.818;2.322;2023-07-28T07:18:46;99946.13;;;21.37;52.34
22000;BME280;11164;48.818;2.322;2023-07-28T07:21:12;99947.28;;;21.26;52.37
22000;BME280;11164;48.818;2.322;2023-07-28T07:23:37;99943.38;;;21.37;52.23
22000;BME280;11164;48.818;2.322;2023-07-28T07:26:03;99951.31;;;21.39;52.17
22000;BME280;11164;48.818;2.322;2023-07-28T07:28:28;99965.34;;;21.32;52.23
22000;BME280;11164;48.818;2.322;2023-07-28T07:30:54;99952.59;;;21.07;52.61
22000;BME280;11164;48.818;2.322;2023-07-28T07:33:19;99962.78;;;21.01;52.80
22000;BME280;11164;48.818;2.322;2023-07-28T07:35:45;99967.44;;;21.06;52.11
22000;BME280;11164;48.818;2.322;2023-07-28T07:38:10;99968.06;;;20.92;52.14
22000;BME280;11164;48.818;2.322;2023-07-28T07:40:35;99967.66;;;20.65;53.04
22000;BME280;11164;48.818;2.322;2023-07-28T07:43:01;99960.22;;;20.70;52.79
22000;BME280;11164;48.818;2.322;2023-07-28T07:45:28;99970.56;;;20.84;52.43
22000;BME280;11164;48.818;2.322;2023-07-28T07:47:54;99965.91;;;20.84;52.41
22000;BME280;11164;48.818;2.322;2023-07-28T07:50:20;99972.78;;;20.81;52.45
22000;BME280;11164;48.818;2.322;2023-07-28T07:52:47;99967.59;;;20.75;52.66
22000;BME280;11164;48.818;2.322;2023-07-28T07:55:13;99967.59;;;20.75;52.97
22000;BME280;11164;48.818;2.322;2023-07-28T07:57:39;99971.66;;;20.88;52.59
22000;BME280;11164;48.818;2.322;2023-07-28T08:00:06;99967.16;;;21.07;52.18
22000;BME280;11164;48.818;2.322;2023-07-28T08:02:32;99966.81;;;21.19;51.99
22000;BME280;11164;48.818;2.322;2023-07-28T08:04:57;99967.66;;;21.14;52.03
22000;BME280;11164;48.818;2.322;2023-07-28T08:07:22;99971.19;;;21.15;51.85
22000;BME280;11164;48.818;2.322;2023-07-28T08:09:49;99981.03;;;21.21;52.21
22000;BME280;11164;48.818;2.322;2023-07-28T08:12:14;99977.13;;;21.32;51.97
22000;BME280;11164;48.818;2.322;2023-07-28T08:14:40;99976.53;;;21.41;51.76
22000;BME280;11164;48.818;2.322;2023-07-28T08:17:05;99979.28;;;21.41;51.88
22000;BME280;11164;48.818;2.322;2023-07-28T08:19:31;99983.50;;;21.57;51.75
22000;BME280;11164;48.818;2.322;2023-07-28T08:21:56;99982.41;;;21.58;51.99
22000;BME280;11164;48.818;2.322;2023-07-28T08:24:21;99987.56;;;21.65;52.01
22000;BME280;11164;48.818;2.322;2023-07-28T08:26:47;99987.13;;;21.52;52.46
22000;BME280;11164;48.818;2.322;2023-07-28T08:29:12;99992.13;;;21.45;52.41
22000;BME280;11164;48.818;2.322;2023-07-28T08:31:37;99981.06;;;21.55;52.50
22000;BME280;11164;48.818;2.322;2023-07-28T08:34:03;99991.09;;;21.70;52.30
22000;BME280;11164;48.818;2.322;2023-07-28T08:36:28;99983.38;;;21.72;52.55
22000;BME280;11164;48.818;2.322;2023-07-28T08:38:54;99990.00;;;21.71;52.35
22000;BME280;11164;48.818;2.322;2023-07-28T08:41:20;99990.75;;;21.77;52.34
22000;BME280;11164;48.818;2.322;2023-07-28T08:43:45;99992.75;;;22.01;51.96
22000;BME280;11164;48.818;2.322;2023-07-28T08:46:11;99993.13;;;22.18;51.87
22000;BME280;11164;48.818;2.322;2023-07-28T08:48:37;100003.63;;;22.11;52.34
22000;BME280;11164;48.818;2.322;2023-07-28T08:51:03;100002.69;;;22.21;52.03
22000;BME280;11164;48.818;2.322;2023-07-28T08:53:29;100002.16;;;22.19;52.17
22000;BME280;11164;48.818;2.322;2023-07-28T08:55:55;99986.69;;;22.28;51.83
22000;BME280;11164;48.818;2.322;2023-07-28T08:58:22;100003.56;;;22.40;52.28
22000;BME280;11164;48.818;2.322;2023-07-28T09:00:49;99997.13;;;22.50;51.91
22000;BME280;11164;48.818;2.322;2023-07-28T09:03:19;99993.94;;;22.67;52.14
22000;BME280;11164;48.818;2.322;2023-07-28T09:05:45;100001.22;;;22.77;51.67
22000;BME280;11164;48.818;2.322;2023-07-28T09:08:12;99993.75;;;22.82;51.63
22000;BME280;11164;48.818;2.322;2023-07-28T09:10:46;99998.47;;;22.96;51.76
22000;BME280;11164;48.818;2.322;2023-07-28T09:13:17;99997.38;;;22.78;52.08
22000;BME280;11164;48.818;2.322;2023-07-28T09:15:43;100006.88;;;22.66;52.18
22000;BME280;11164;48.818;2.322;2023-07-28T09:18:09;100000.69;;;22.75;52.44
22000;BME280;11164;48.818;2.322;2023-07-28T09:20:39;99997.78;;;22.66;52.17
22000;BME280;11164;48.818;2.322;2023-07-28T09:23:07;100002.78;;;22.83;52.33
22000;BME280;11164;48.818;2.322;2023-07-28T09:25:34;99994.25;;;22.84;51.89
22000;BME280;11164;48.818;2.322;2023-07-28T09:27:59;100000.25;;;22.67;52.72
22000;BME280;11164;48.818;2.322;2023-07-28T09:30:25;100001.28;;;22.72;52.48
22000;BME280;11164;48.818;2.322;2023-07-28T09:32:53;100003.75;;;22.73;52.45
22000;BME280;11164;48.818;2.322;2023-07-28T09:35:20;99996.41;;;22.68;52.52
22000;BME280;11164;48.818;2.322;2023-07-28T09:37:47;99978.78;;;22.70;52.52
22000;BME280;11164;48.818;2.322;2023-07-28T09:40:15;99999.75;;;22.84;52.59
22000;BME280;11164;48.818;2.322;2023-07-28T09:42:42;99987.94;;;22.84;52.55
22000;BME280;11164;48.818;2.322;2023-07-28T09:45:09;100006.22;;;23.13;52.02
22000;BME280;11164;48.818;2.322;2023-07-28T09:47:35;99998.78;;;23.32;52.12
22000;BME280;11164;48.818;2.322;2023-07-28T09:50:06;100005.06;;;23.38;51.87
22000;BME280;11164;48.818;2.322;2023-07-28T09:52:42;99998.69;;;23.18;52.37
22000;BME280;11164;48.818;2.322;2023-07-28T09:55:09;99991.22;;;23.43;51.81
22000;BME280;11164;48.818;2.322;2023-07-28T09:57:39;99993.34;;;23.46;52.24
22000;BME280;11164;48.818;2.322;2023-07-28T10:00:10;99991.47;;;23.28;52.06
22000;BME280;11164;48.818;2.322;2023-07-28T10:02:37;99984.53;;;23.30;52.10
22000;BME280;11164;48.818;2.322;2023-07-28T10:05:04;99994.47;;;23.26;51.75
22000;BME280;11164;48.818;2.322;2023-07-28T10:07:30;99992.41;;;23.37;51.72
22000;BME280;11164;48.818;2.322;2023-07-28T10:09:56;99998.13;;;23.40;51.66
22000;BME280;11164;48.818;2.322;2023-07-28T10:12:25;99999.41;;;23.48;51.37
22000;BME280;11164;48.818;2.322;2023-07-28T10:15:03;99994.53;;;23.59;50.71
22000;BME280;11164;48.818;2.322;2023-07-28T10:17:34;99991.56;;;23.88;49.99
22000;BME280;11164;48.818;2.322;2023-07-28T10:20:04;99984.25;;;24.25;49.66
22000;BME280;11164;48.818;2.322;2023-07-28T10:22:43;99979.66;;;24.48;49.92
22000;BME280;11164;48.818;2.322;2023-07-28T10:25:08;99980.69;;;24.80;49.28
22000;BME280;11164;48.818;2.322;2023-07-28T10:27:37;99986.72;;;25.19;49.29
22000;BME280;11164;48.818;2.322;2023-07-28T10:30:09;99984.03;;;25.14;49.49
22000;BME280;11164;48.818;2.322;2023-07-28T10:32:41;99984.16;;;25.08;49.88
22000;BME280;11164;48.818;2.322;2023-07-28T10:35:28;99976.75;;;24.95;49.99
22000;BME280;11164;48.818;2.322;2023-07-28T10:37:56;99980.72;;;25.39;49.72
22000;BME280;11164;48.818;2.322;2023-07-28T10:40:31;99978.75;;;25.62;49.75
22000;BME280;11164;48.818;2.322;2023-07-28T10:42:58;99970.72;;;26.06;49.02
22000;BME280;11164;48.818;2.322;2023-07-28T10:45:25;99958.47;;;25.67;49.90
22000;BME280;11164;48.818;2.322;2023-07-28T10:47:54;99961.94;;;26.04;49.12
22000;BME280;11164;48.818;2.322;2023-07-28T10:50:23;99959.69;;;26.15;49.04
22000;BME280;11164;48.818;2.322;2023-07-28T10:52:49;99946.00;;;26.67;48.18
22000;BME280;11164;48.818;2.322;2023-07-28T10:55:23;99956.81;;;26.95;47.30
22000;BME280;11164;48.818;2.322;2023-07-28T10:57:50;99952.38;;;26.76;48.51
22000;BME280;11164;48.818;2.322;2023-07-28T11:00:18;99958.00;;;26.36;48.97
22000;BME280;11164;48.818;2.322;2023-07-28T11:02:46;99967.66;;;26.16;49.36
22000;BME280;11164;48.818;2.322;2023-07-28T11:05:13;99957.72;;;26.15;49.27
22000;BME280;11164;48.818;2.322;2023-07-28T11:07:43;99968.22;;;25.96;49.40
22000;BME280;11164;48.818;2.322;2023-07-28T11:10:13;99968.63;;;25.80;49.40
22000;BME280;11164;48.818;2.322;2023-07-28T11:12:46;99965.06;;;25.80;49.49
22000;BME280;11164;48.818;2.322;2023-07-28T11:15:13;99967.56;;;25.90;49.14
22000;BME280;11164;48.818;2.322;2023-07-28T11:17:49;99956.88;;;26.37;48.82
22000;BME280;11164;48.818;2.322;2023-07-28T11:20:19;99960.41;;;27.13;47.73
22000;BME280;11164;48.818;2.322;2023-07-28T11:22:51;99952.72;;;27.53;47.50
22000;BME280;11164;48.818;2.322;2023-07-28T11:25:18;99954.34;;;27.55;47.50
22000;BME280;11164;48.818;2.322;2023-07-28T11:27:44;99946.19;;;27.58;47.52
22000;BME280;11164;48.818;2.322;2023-07-28T11:30:12;99940.50;;;27.46;47.10
22000;BME280;11164;48.818;2.322;2023-07-28T11:32:37;99938.09;;;26.92;48.30
22000;BME280;11164;48.818;2.322;2023-07-28T11:35:07;99941.97;;;26.65;48.50
22000;BME280;11164;48.818;2.322;2023-07-28T11:37:35;99941.03;;;27.13;47.74
22000;BME280;11164;48.818;2.322;2023-07-28T11:40:05;99935.63;;;26.82;48.09
22000;BME280;11164;48.818;2.322;2023-07-28T11:42:37;99930.91;;;26.65;49.00
22000;BME280;11164;48.818;2.322;2023-07-28T11:45:04;99924.28;;;27.09;48.23
22000;BME280;11164;48.818;2.322;2023-07-28T11:47:30;99930.13;;;27.25;48.07
22000;BME280;11164;48.818;2.322;2023-07-28T11:49:56;99928.31;;;27.29;47.83
22000;BME280;11164;48.818;2.322;2023-07-28T11:52:34;99914.09;;;27.57;47.31
22000;BME280;11164;48.818;2.322;2023-07-28T11:55:00;99909.59;;;27.17;47.96
22000;BME280;11164;48.818;2.322;2023-07-28T11:57:27;99917.72;;;27.23;48.11
22000;BME280;11164;48.818;2.322;2023-07-28T11:59:56;99902.44;;;27.16;47.57
22000;BME280;11164;48.818;2.322;2023-07-28T12:02:29;99913.22;;;27.09;47.86
22000;BME280;11164;48.818;2.322;2023-07-28T12:04:55;99922.13;;;27.24;47.57
22000;BME280;11164;48.818;2.322;2023-07-28T12:07:30;99925.09;;;27.01;47.30
22000;BME280;11164;48.818;2.322;2023-07-28T12:09:56;99922.25;;;27.45;42.98
22000;BME280;11164;48.818;2.322;2023-07-28T12:12:26;99920.81;;;26.86;47.74
22000;BME280;11164;48.818;2.322;2023-07-28T12:14:54;99926.78;;;26.36;48.68
22000;BME280;11164;48.818;2.322;2023-07-28T12:17:22;99910.06;;;26.01;49.02
22000;BME280;11164;48.818;2.322;2023-07-28T12:20:05;99905.84;;;25.95;47.71
22000;BME280;11164;48.818;2.322;2023-07-28T12:22:41;99919.50;;;26.00;48.58
22000;BME280;11164;48.818;2.322;2023-07-28T12:25:07;99922.28;;;26.57;47.80
22000;BME280;11164;48.818;2.322;2023-07-28T12:27:33;99913.19;;;26.92;47.11
22000;BME280;11164;48.818;2.322;2023-07-28T12:29:59;99921.34;;;27.06;46.92
22000;BME280;11164;48.818;2.322;2023-07-28T12:32:25;99926.69;;;27.20;47.18
22000;BME280;11164;48.818;2.322;2023-07-28T12:34:50;99917.03;;;27.43;46.54
22000;BME280;11164;48.818;2.322;2023-07-28T12:37:16;99908.56;;;27.48;46.88
22000;BME280;11164;48.818;2.322;2023-07-28T12:39:42;99922.06;;;27.67;46.55
22000;BME280;11164;48.818;2.322;2023-07-28T12:42:09;99922.88;;;27.59;46.79
22000;BME280;11164;48.818;2.322;2023-07-28T12:44:36;99927.88;;;27.75;46.24
22000;BME280;11164;48.818;2.322;2023-07-28T12:47:01;99918.22;;;27.25;47.25
22000;BME280;11164;48.818;2.322;2023-07-28T12:49:27;99922.59;;;27.34;46.70
22000;BME280;11164;48.818;2.322;2023-07-28T12:51:56;99914.63;;;27.33;46.95
22000;BME280;11164;48.818;2.322;2023-07-28T12:54:22;99904.75;;;28.18;45.97
22000;BME280;11164;48.818;2.322;2023-07-28T12:56:48;99909.19;;;28.40;44.91
22000;BME280;11164;48.818;2.322;2023-07-28T12:59:14;99906.28;;;28.36;45.24
22000;BME280;11164;48.818;2.322;2023-07-28T13:01:40;99907.66;;;28.72;44.88